Time;durP1;ratioP1;P1;durP2;ratioP2;P2;SDS_P1;SDS_P2;PMS_P1;PMS_P2;Temp;Humidity;BMP_temperature;BMP_pressure;BME280_temperature;BME280_humidity;BME280_pressure;Samples;Min_cycle;Max_cycle;Signal;HPM_P1;HPM_P2
2023/07/09 00:01:58;;;;;;;;;;;;;;;21.45;nan;100762.13;4992361;28;19924;-85
2023/07/09 00:04:23;;;;;;;;;;;;;;;21.42;nan;100768.75;4994915;28;19917;-84
2023/07/09 00:06:49;;;;;;;;;;;;;;;21.36;nan;100764.22;4977864;28;19918;-85
2023/07/09 00:09:15;;;;;;;;;;;;;;;21.32;nan;100758.44;4995767;28;19956;-84
2023/07/09 00:11:41;;;;;;;;;;;;;;;21.31;nan;100755.97;4979228;28;19979;-84
2023/07/09 00:14:08;;;;;;;;;;;;;;;21.27;nan;100766.34;4995350;28;19918;-85
2023/07/09 00:16:33;;;;;;;;;;;;;;;21.24;nan;100764.09;4980567;28;19921;-85
2023/07/09 00:18:59;;;;;;;;;;;;;;;21.22;nan;100766.16;4977319;28;19918;-85
2023/07/09 00:21:25;;;;;;;;;;;;;;;21.22;nan;100774.25;4993837;28;20822;-85
2023/07/09 00:23:50;;;;;;;;;;;;;;;21.24;nan;100766.78;4976100;28;19922;-84
2023/07/09 00:26:17;;;;;;;;;;;;;;;21.21;nan;100762.66;4979045;28;19980;-85
2023/07/09 00:28:43;;;;;;;;;;;;;;;21.15;nan;100766.22;4980912;28;19921;-84
2023/07/09 00:31:16;;;;;;;;;;;;;;;21.04;nan;100769.56;4979235;28;20291;-84
2023/07/09 00:33:42;;;;;;;;;;;;;;;20.96;nan;100770.66;4978589;28;20222;-85
2023/07/09 00:36:14;;;;;;;;;;;;;;;20.94;nan;100769.22;4994105;28;19924;-85
2023/07/09 00:38:40;;;;;;;;;;;;;;;20.92;nan;100768.59;4976719;28;20518;-85
2023/07/09 00:41:17;;;;;;;;;;;;;;;20.89;nan;100777.91;4994707;28;19917;-83
2023/07/09 00:43:42;;;;;;;;;;;;;;;20.86;nan;100786.41;4994449;28;19918;-83
2023/07/09 00:46:16;;;;;;;;;;;;;;;20.79;nan;100783.75;5003082;28;19925;-83
2023/07/09 00:48:42;;;;;;;;;;;;;;;20.74;nan;100788.94;4975776;28;19918;-82
2023/07/09 00:51:15;;;;;;;;;;;;;;;20.69;nan;100791.44;4995682;28;20004;-83
2023/07/09 00:53:45;;;;;;;;;;;;;;;20.66;nan;100791.84;4983748;28;19925;-83
2023/07/09 00:56:11;;;;;;;;;;;;;;;20.63;nan;100792.28;4979779;28;19917;-83
2023/07/09 00:58:37;;;;;;;;;;;;;;;20.64;nan;100791.25;4981470;28;19996;-83
2023/07/09 01:01:05;;;;;;;;;;;;;;;20.64;nan;100793.94;4980828;28;19918;-82
2023/07/09 01:03:42;;;;;;;;;;;;;;;20.64;nan;100785.88;5000079;28;19918;-83
2023/07/09 01:06:07;;;;;;;;;;;;;;;20.61;nan;100790.84;4998288;28;19921;-82
2023/07/09 01:08:34;;;;;;;;;;;;;;;20.55;nan;100796.03;5000251;28;19945;-83
2023/07/09 01:10:59;;;;;;;;;;;;;;;20.51;nan;100802.00;4983379;28;19926;-83
2023/07/09 01:13:26;;;;;;;;;;;;;;;20.44;nan;100798.50;5000788;28;20045;-83
2023/07/09 01:15:52;;;;;;;;;;;;;;;20.41;nan;100794.38;4998276;28;19929;-83
2023/07/09 01:18:17;;;;;;;;;;;;;;;20.40;nan;100800.78;4982448;28;19918;-83
2023/07/09 01:20:43;;;;;;;;;;;;;;;20.35;nan;100801.44;4981604;28;19921;-83
2023/07/09 01:23:09;;;;;;;;;;;;;;;20.28;nan;100805.13;4998823;28;19921;-83
2023/07/09 01:25:35;;;;;;;;;;;;;;;20.23;nan;100802.25;4982337;28;19972;-83
2023/07/09 01:28:01;;;;;;;;;;;;;;;20.24;nan;100807.44;4998927;28;19917;-82
2023/07/09 01:30:30;;;;;;;;;;;;;;;20.27;nan;100806.19;4998288;28;20073;-82
2023/07/09 01:33:00;;;;;;;;;;;;;;;20.28;nan;100800.59;4978546;28;19945;-83
2023/07/09 01:35:26;;;;;;;;;;;;;;;20.34;nan;100794.38;4977251;28;20016;-83
2023/07/09 01:37:52;;;;;;;;;;;;;;;20.41;nan;100799.75;4977367;28;19988;-83
2023/07/09 01:40:18;;;;;;;;;;;;;;;20.44;nan;100798.50;4995457;28;19913;-83
2023/07/09 01:42:43;;;;;;;;;;;;;;;20.44;nan;100804.69;4984604;28;20397;-82
2023/07/09 01:45:10;;;;;;;;;;;;;;;20.50;nan;100806.56;5001551;28;19917;-83
2023/07/09 01:47:35;;;;;;;;;;;;;;;20.55;nan;100796.03;4996465;28;20193;-82
2023/07/09 01:50:01;;;;;;;;;;;;;;;20.57;nan;100802.03;4979956;28;20045;-83
2023/07/09 01:52:27;;;;;;;;;;;;;;;20.51;nan;100802.81;4999817;28;19933;-84
2023/07/09 01:54:52;;;;;;;;;;;;;;;20.43;nan;100797.69;4980959;28;19949;-82
2023/07/09 01:57:22;;;;;;;;;;;;;;;20.37;nan;100793.97;4981863;28;19921;-83
2023/07/09 01:59:48;;;;;;;;;;;;;;;20.37;nan;100798.50;4997791;28;19913;-83
2023/07/09 02:02:18;;;;;;;;;;;;;;;20.43;nan;100797.69;4995968;28;19921;-83
2023/07/09 02:04:43;;;;;;;;;;;;;;;20.52;nan;100801.81;4969506;28;19925;-83
2023/07/09 02:07:09;;;;;;;;;;;;;;;20.56;nan;100803.03;4968580;28;20633;-83
2023/07/09 02:09:34;;;;;;;;;;;;;;;20.63;nan;100802.22;4994853;28;20453;-83
2023/07/09 02:11:59;;;;;;;;;;;;;;;20.65;nan;100808.19;4997767;28;20106;-83
2023/07/09 02:14:24;;;;;;;;;;;;;;;20.58;nan;100805.53;4980074;28;19929;-83
2023/07/09 02:16:50;;;;;;;;;;;;;;;20.54;nan;100804.25;4983933;28;19914;-83
2023/07/09 02:19:15;;;;;;;;;;;;;;;20.51;nan;100799.31;4998942;28;19918;-83
2023/07/09 02:21:41;;;;;;;;;;;;;;;20.49;nan;100796.81;4989887;28;19949;-83
2023/07/09 02:24:06;;;;;;;;;;;;;;;20.46;nan;100793.75;5002553;28;19941;-82
2023/07/09 02:26:31;;;;;;;;;;;;;;;20.40;nan;100790.03;4990523;28;20372;-82
2023/07/09 02:28:56;;;;;;;;;;;;;;;20.35;nan;100795.22;5000742;28;20367;-83
2023/07/09 02:31:21;;;;;;;;;;;;;;;20.33;nan;100791.91;4992986;28;19924;-82
2023/07/09 02:33:46;;;;;;;;;;;;;;;20.34;nan;100799.75;4975462;28;19949;-82
2023/07/09 02:36:12;;;;;;;;;;;;;;;20.38;nan;100797.50;4986060;28;19918;-83
2023/07/09 02:38:37;;;;;;;;;;;;;;;20.41;nan;100788.19;4976508;28;20441;-83
2023/07/09 02:41:02;;;;;;;;;;;;;;;20.44;nan;100793.13;4976052;28;19922;-83
2023/07/09 02:43:27;;;;;;;;;;;;;;;20.40;nan;100790.03;5001173;28;19917;-83
2023/07/09 02:45:52;;;;;;;;;;;;;;;20.35;nan;100792.53;4974978;28;19980;-82
2023/07/09 02:48:17;;;;;;;;;;;;;;;20.28;nan;100794.41;4976448;28;20027;-83
2023/07/09 02:50:43;;;;;;;;;;;;;;;20.19;nan;100792.97;4976643;28;20284;-83
2023/07/09 02:53:08;;;;;;;;;;;;;;;20.09;nan;100799.59;4975068;28;19968;-83
2023/07/09 02:55:34;;;;;;;;;;;;;;;20.03;nan;100795.06;4995732;28;20000;-82
2023/07/09 02:57:59;;;;;;;;;;;;;;;19.98;nan;100794.03;4994831;28;20291;-83
2023/07/09 03:00:24;;;;;;;;;;;;;;;19.90;nan;100793.22;4995107;28;19922;-82
2023/07/09 03:02:50;;;;;;;;;;;;;;;19.90;nan;100797.72;4992546;28;19918;-82
2023/07/09 03:05:15;;;;;;;;;;;;;;;19.98;nan;100794.84;4977845;28;19944;-82
2023/07/09 03:07:40;;;;;;;;;;;;;;;20.08;nan;100799.81;4978502;28;19925;-83
2023/07/09 03:10:05;;;;;;;;;;;;;;;20.28;nan;100803.28;4995637;28;19929;-82
2023/07/09 03:12:31;;;;;;;;;;;;;;;20.51;nan;100808.19;4994721;28;19968;-83
2023/07/09 03:14:56;;;;;;;;;;;;;;;20.72;nan;100811.69;4995704;28;19917;-83
2023/07/09 03:17:21;;;;;;;;;;;;;;;20.88;nan;100811.22;5004170;28;19917;-83
2023/07/09 03:19:46;;;;;;;;;;;;;;;20.96;nan;100805.59;4978503;28;19914;-81
2023/07/09 03:22:11;;;;;;;;;;;;;;;21.02;nan;100805.78;4985888;28;19928;-81
2023/07/09 03:24:37;;;;;;;;;;;;;;;21.00;nan;100814.91;5003757;28;19917;-81
2023/07/09 03:27:02;;;;;;;;;;;;;;;20.99;nan;100813.22;4987206;28;20208;-81
2023/07/09 03:29:27;;;;;;;;;;;;;;;20.98;nan;100819.66;5005136;28;19925;-81
2023/07/09 03:31:52;;;;;;;;;;;;;;;20.97;nan;100828.78;4987025;28;20020;-81
2023/07/09 03:34:18;;;;;;;;;;;;;;;20.97;nan;100820.72;4984714;28;19917;-81
2023/07/09 03:36:43;;;;;;;;;;;;;;;20.94;nan;100834.56;4982769;28;19914;-82
2023/07/09 03:39:08;;;;;;;;;;;;;;;20.91;nan;100835.00;4982337;28;19960;-81
2023/07/09 03:41:34;;;;;;;;;;;;;;;20.91;nan;100845.75;4998784;28;20298;-81
2023/07/09 03:43:59;;;;;;;;;;;;;;;20.85;nan;100841.19;4983798;28;20399;-81
2023/07/09 03:46:24;;;;;;;;;;;;;;;20.85;nan;100843.06;4979712;28;19918;-81
2023/07/09 03:48:50;;;;;;;;;;;;;;;20.81;nan;100839.16;4997712;28;19924;-81
2023/07/09 03:51:15;;;;;;;;;;;;;;;20.74;nan;100837.31;4983959;28;20403;-81
2023/07/09 03:53:41;;;;;;;;;;;;;;;20.68;nan;100838.16;4984608;28;19918;-82
2023/07/09 03:56:06;;;;;;;;;;;;;;;20.70;nan;100835.25;5003688;28;19969;-82
2023/07/09 03:58:32;;;;;;;;;;;;;;;20.71;nan;100844.97;4984090;28;19929;-81
2023/07/09 04:00:57;;;;;;;;;;;;;;;20.70;nan;100840.63;4998451;28;20129;-81
2023/07/09 04:03:22;;;;;;;;;;;;;;;20.70;nan;100838.78;5002805;28;19944;-81
2023/07/09 04:05:48;;;;;;;;;;;;;;;20.68;nan;100848.06;5003004;28;19925;-81
2023/07/09 04:08:13;;;;;;;;;;;;;;;20.63;nan;100842.50;4982804;28;19917;-81
2023/07/09 04:10:39;;;;;;;;;;;;;;;20.62;nan;100847.06;4987701;28;19925;-81
2023/07/09 04:13:04;;;;;;;;;;;;;;;20.63;nan;100840.66;4984732;28;19924;-82
2023/07/09 04:15:30;;;;;;;;;;;;;;;20.64;nan;100842.31;4983328;28;19917;-81
2023/07/09 04:17:55;;;;;;;;;;;;;;;20.65;nan;100848.50;4983436;28;20183;-81
2023/07/09 04:20:20;;;;;;;;;;;;;;;20.65;nan;100848.50;4982473;28;19914;-81
2023/07/09 04:22:46;;;;;;;;;;;;;;;20.66;nan;100847.47;4983538;28;19914;-81
2023/07/09 04:25:11;;;;;;;;;;;;;;;20.66;nan;100845.59;5000843;28;19925;-81
2023/07/09 04:27:37;;;;;;;;;;;;;;;20.70;nan;100849.50;4997656;28;19920;-81
2023/07/09 04:30:04;;;;;;;;;;;;;;;20.77;nan;100846.81;5007986;28;19953;-82
2023/07/09 04:32:30;;;;;;;;;;;;;;;20.82;nan;100846.19;4999126;28;20402;-81
2023/07/09 04:34:55;;;;;;;;;;;;;;;20.82;nan;100844.31;4982237;28;19914;-82
2023/07/09 04:37:21;;;;;;;;;;;;;;;20.78;nan;100854.69;4982299;28;19914;-81
2023/07/09 04:39:47;;;;;;;;;;;;;;;20.70;nan;100852.22;5000467;28;20490;-81
2023/07/09 04:42:13;;;;;;;;;;;;;;;20.64;nan;100852.22;5005151;28;19919;-82
2023/07/09 04:44:39;;;;;;;;;;;;;;;20.61;nan;100849.97;4982293;28;20375;-82
2023/07/09 04:47:04;;;;;;;;;;;;;;;20.58;nan;100853.88;4982001;28;19957;-82
2023/07/09 04:49:29;;;;;;;;;;;;;;;20.56;nan;100859.47;4996840;28;19924;-82
2023/07/09 04:51:56;;;;;;;;;;;;;;;20.56;nan;100855.97;4997244;28;19945;-82
2023/07/09 04:54:22;;;;;;;;;;;;;;;20.61;nan;100856.16;4997483;28;19926;-82
2023/07/09 04:56:48;;;;;;;;;;;;;;;20.63;nan;100856.78;4998254;28;19956;-82
2023/07/09 04:59:13;;;;;;;;;;;;;;;20.67;nan;100862.56;4998520;28;19937;-82
2023/07/09 05:01:39;;;;;;;;;;;;;;;20.76;nan;100864.81;4999394;28;19924;-82
2023/07/09 05:04:04;;;;;;;;;;;;;;;20.89;nan;100865.81;4999383;28;19953;-82
2023/07/09 05:06:29;;;;;;;;;;;;;;;21.00;nan;100863.28;5002431;28;20341;-82
2023/07/09 05:08:55;;;;;;;;;;;;;;;21.13;nan;100873.16;4978132;28;20283;-82
2023/07/09 05:11:20;;;;;;;;;;;;;;;21.23;nan;100874.56;4980856;28;19921;-82
2023/07/09 05:13:45;;;;;;;;;;;;;;;21.30;nan;100869.97;5000134;28;19968;-82
2023/07/09 05:16:10;;;;;;;;;;;;;;;21.40;nan;100879.28;4983140;28;19925;-83
2023/07/09 05:18:36;;;;;;;;;;;;;;;21.50;nan;100878.81;4983816;28;19996;-82
2023/07/09 05:21:01;;;;;;;;;;;;;;;21.56;nan;100887.91;4985482;28;19925;-82
2023/07/09 05:23:26;;;;;;;;;;;;;;;21.64;nan;100887.63;4986269;28;20177;-82
2023/07/09 05:25:58;;;;;;;;;;;;;;;21.75;nan;100886.13;5001065;28;19925;-81
2023/07/09 05:28:24;;;;;;;;;;;;;;;21.91;nan;100893.69;4987247;28;20016;-81
2023/07/09 05:30:49;;;;;;;;;;;;;;;22.07;nan;100889.63;4982491;28;19949;-81
2023/07/09 05:33:15;;;;;;;;;;;;;;;22.21;nan;100890.38;4985079;28;20423;-81
2023/07/09 05:35:42;;;;;;;;;;;;;;;22.35;nan;100891.09;4982533;28;19925;-81
2023/07/09 05:38:07;;;;;;;;;;;;;;;22.48;nan;100885.59;4981379;28;20020;-81
2023/07/09 05:40:32;;;;;;;;;;;;;;;22.61;nan;100885.44;4998980;28;20411;-82
2023/07/09 05:42:57;;;;;;;;;;;;;;;22.73;nan;100882.03;4999340;28;19925;-81
2023/07/09 05:45:23;;;;;;;;;;;;;;;22.79;nan;100881.13;4998426;28;19988;-82
2023/07/09 05:47:48;;;;;;;;;;;;;;;22.92;nan;100882.84;4988598;28;19918;-81
2023/07/09 05:50:13;;;;;;;;;;;;;;;23.13;nan;100881.59;5006305;28;19949;-82
2023/07/09 05:52:38;;;;;;;;;;;;;;;23.49;nan;100878.03;4988279;28;19996;-81
2023/07/09 05:55:04;;;;;;;;;;;;;;;23.97;nan;100881.72;4984621;28;19924;-81
2023/07/09 05:57:29;;;;;;;;;;;;;;;24.42;nan;100876.59;4999992;28;20291;-81
2023/07/09 05:59:54;;;;;;;;;;;;;;;24.89;nan;100878.47;4981939;28;19917;-81
2023/07/09 06:02:20;;;;;;;;;;;;;;;25.27;nan;100877.91;4998416;28;20074;-81
2023/07/09 06:04:46;;;;;;;;;;;;;;;25.58;nan;100875.78;4982669;28;19957;-82
2023/07/09 06:07:12;;;;;;;;;;;;;;;25.92;nan;100876.69;4990935;28;19922;-82
2023/07/09 06:09:37;;;;;;;;;;;;;;;26.34;nan;100873.56;4998450;28;19921;-82
2023/07/09 06:12:03;;;;;;;;;;;;;;;26.72;nan;100868.41;4998826;28;20292;-82
2023/07/09 06:14:29;;;;;;;;;;;;;;;27.09;nan;100868.63;4982675;28;19918;-82
2023/07/09 06:16:54;;;;;;;;;;;;;;;27.39;nan;100880.91;4979814;28;19914;-82
2023/07/09 06:19:19;;;;;;;;;;;;;;;27.81;nan;100882.97;4981501;28;19945;-82
2023/07/09 06:21:44;;;;;;;;;;;;;;;28.25;nan;100880.09;4998528;28;19918;-82
2023/07/09 06:24:10;;;;;;;;;;;;;;;28.66;nan;100880.38;4997398;28;20379;-82
2023/07/09 06:26:35;;;;;;;;;;;;;;;29.18;nan;100888.53;4998571;28;20277;-82
2023/07/09 06:29:00;;;;;;;;;;;;;;;29.68;nan;100886.25;4998236;28;19914;-82
2023/07/09 06:31:25;;;;;;;;;;;;;;;30.10;nan;100895.22;4997667;28;19977;-82
2023/07/09 06:33:51;;;;;;;;;;;;;;;30.39;nan;100900.97;4978212;28;19920;-82
2023/07/09 06:36:17;;;;;;;;;;;;;;;30.60;nan;100893.56;4986856;28;19932;-82
2023/07/09 06:38:42;;;;;;;;;;;;;;;30.77;nan;100895.97;5003731;28;20247;-83
2023/07/09 06:41:07;;;;;;;;;;;;;;;30.61;nan;100892.47;5002492;28;19917;-83
2023/07/09 06:43:32;;;;;;;;;;;;;;;30.69;nan;100898.16;5001434;28;19941;-83
2023/07/09 06:45:59;;;;;;;0.00;0.00;;;;;;;30.83;nan;100892.97;4984153;28;19956;-82
2023/07/09 06:48:26;;;;;;;0.00;0.00;;;;;;;31.17;nan;100894.19;4999785;28;20109;-82
2023/07/09 06:50:53;;;;;;;0.00;0.00;;;;;;;31.64;nan;100903.78;4999033;28;20057;-82
2023/07/09 06:53:20;;;;;;;0.00;0.00;;;;;;;31.94;nan;100903.56;4999653;28;20027;-82
2023/07/09 06:55:45;;;;;;;0.00;0.00;;;;;;;32.23;nan;100902.00;5000739;28;20035;-82
2023/07/09 06:58:11;;;;;;;0.00;0.00;;;;;;;32.37;nan;100906.50;4998364;28;20035;-82
2023/07/09 07:00:36;;;;;;;0.00;0.00;;;;;;;32.46;nan;100892.97;4980348;28;20034;-83
2023/07/09 07:03:02;;;;;;;0.00;0.00;;;;;;;32.66;nan;100891.97;4997987;28;20042;-82
2023/07/09 07:05:27;;;;;;;0.00;0.00;;;;;;;32.77;nan;100865.28;4999249;28;20554;-82
2023/07/09 07:07:53;;;;;;;0.00;0.00;;;;;;;32.75;nan;100819.03;4980928;28;20030;-82
2023/07/09 07:10:19;;;;;;;0.00;0.00;;;;;;;32.82;nan;100768.53;4996027;28;20103;-82
2023/07/09 07:12:47;;;;;;;0.00;0.00;;;;;;;32.98;nan;100811.03;4995597;28;20055;-83
2023/07/09 07:15:16;;;;;;;0.00;0.00;;;;;;;33.19;nan;100778.72;4980755;28;20073;-82
2023/07/09 07:17:41;;;;;;;0.00;0.00;;;;;;;33.42;nan;100854.56;4996576;28;20105;-83
2023/07/09 07:20:08;;;;;;;;;;;;;;;33.47;nan;100804.31;4996189;28;20026;-83
2023/07/09 07:22:33;;;;;;;0.00;0.00;;;;;;;33.75;nan;100785.22;4995351;28;19980;-82
2023/07/09 07:24:58;;;;;;;0.00;0.00;;;;;;;;;;4995335;28;20030;-83
2023/07/09 07:27:23;;;;;;;0.00;0.00;;;;;;;;;;4995374;28;20405;-82
2023/07/09 07:29:48;;;;;;;;;;;;;;;34.44;nan;100791.63;4996138;28;20030;-83
2023/07/09 07:32:14;;;;;;;0.00;0.00;;;;;;;34.77;nan;100793.44;4977304;28;20498;-83
2023/07/09 07:34:39;;;;;;;0.00;0.00;;;;;;;;;;4978116;28;20038;-83
2023/07/09 07:37:04;;;;;;;0.00;0.00;;;;;;;35.16;nan;100783.78;4976332;28;20919;-82
2023/07/09 07:39:29;;;;;;;0.00;0.00;;;;;;;35.54;nan;100795.25;4973524;28;20027;-82
2023/07/09 07:41:55;;;;;;;0.00;0.00;;;;;;;35.83;nan;100796.72;4993332;28;20050;-82
2023/07/09 07:44:21;;;;;;;0.00;0.00;;;;;;;36.13;nan;100786.84;4977038;28;20026;-83
2023/07/09 07:46:46;;;;;;;0.00;0.00;;;;;;;36.30;nan;100789.69;4994453;28;20030;-82
2023/07/09 07:49:12;;;;;;;0.00;0.00;;;;;;;;;;4976351;28;20038;-83
2023/07/09 07:51:38;;;;;;;0.00;0.00;;;;;;;;;;4992072;28;20281;-83
2023/07/09 07:54:03;;;;;;;0.00;0.00;;;;;;;;;;4972924;28;20433;-82
2023/07/09 07:56:28;;;;;;;0.00;0.00;;;;;;;;;;4974246;28;20402;-83
2023/07/09 07:58:54;;;;;;;0.00;0.00;;;;;;;;;;4974077;28;20934;-82
2023/07/09 08:01:19;;;;;;;0.00;0.00;;;;;;;;;;4973075;28;20510;-82
2023/07/09 08:03:44;;;;;;;0.00;0.00;;;;;;;;;;4977970;28;20433;-83
2023/07/09 08:06:11;;;;;;;0.00;0.00;;;;;;;;;;4989961;28;20413;-83
2023/07/09 08:08:36;;;;;;;0.00;0.00;;;;;;;;;;4975294;28;20406;-83
2023/07/09 08:11:04;;;;;;;0.00;0.00;;;;;;;;;;4983003;28;20422;-84
2023/07/09 08:13:30;;;;;;;0.00;0.00;;;;;;;;;;4998586;28;20411;-83
2023/07/09 08:15:55;;;;;;;0.00;0.00;;;;;;;;;;4996823;28;20410;-83
2023/07/09 08:18:20;;;;;;;0.00;0.00;;;;;;;;;;5004398;28;21069;-84
2023/07/09 08:20:45;;;;;;;0.00;0.00;;;;;;;;;;4978755;28;20398;-83
2023/07/09 08:23:11;;;;;;;0.00;0.00;;;;;;;;;;4968891;28;20400;-83
2023/07/09 08:25:36;;;;;;;0.00;0.00;;;;;;;;;;4978425;28;20407;-83
2023/07/09 08:28:01;;;;;;;0.00;0.00;;;;;;;;;;4975723;28;20407;-84
2023/07/09 08:30:26;;;;;;;0.00;0.00;;;;;;;;;;4995673;28;20414;-84
2023/07/09 08:32:52;;;;;;;0.00;0.00;;;;;;;;;;4996450;28;20441;-84
2023/07/09 08:35:17;;;;;;;0.00;0.00;;;;;;;;;;4983023;28;20477;-84
2023/07/09 08:37:42;;;;;;;0.00;0.00;;;;;;;;;;4989070;28;20403;-84
2023/07/09 08:40:11;;;;;;;0.00;0.00;;;;;;;;;;4993578;28;20409;-84
2023/07/09 08:42:41;;;;;;;0.00;0.00;;;;;;;;;;4975797;28;20417;-84
2023/07/09 08:45:15;;;;;;;0.00;0.00;;;;;;;;;;4991333;28;20489;-84
2023/07/09 08:47:48;;;;;;;0.00;0.00;;;;;;;;;;4976787;28;20453;-84
2023/07/09 08:50:15;;;;;;;0.00;0.00;;;;;;;;;;4974865;28;20688;-84
2023/07/09 08:52:42;;;;;;;0.00;0.00;;;;;;;;;;4979535;28;20892;-84
2023/07/09 08:55:20;;;;;;;0.00;0.00;;;;;;;;;;4977122;28;20538;-85
2023/07/09 08:57:52;;;;;;;0.00;0.00;;;;;;;;;;5003264;28;20836;-84
2023/07/09 09:00:20;;;;;;;0.00;0.00;;;;;;;;;;4994298;28;20422;-84
2023/07/09 09:02:45;;;;;;;0.00;0.00;;;;;;;;;;4974720;28;20443;-85
2023/07/09 09:05:14;;;;;;;0.00;0.00;;;;;;;;;;4993695;28;20438;-84
2023/07/09 09:07:40;;;;;;;0.00;0.00;;;;;;;;;;4991966;28;20418;-84
2023/07/09 09:10:05;;;;;;;0.00;0.00;;;;;;;;;;4974001;28;20503;-85
2023/07/09 09:12:50;;;;;;;0.00;0.00;;;;;;;;;;4975739;28;20417;-85
2023/07/09 09:15:17;;;;;;;0.00;0.00;;;;;;;;;;4982615;28;20442;-85
2023/07/09 09:17:43;;;;;;;0.00;0.00;;;;;;;;;;4986343;28;20413;-84
2023/07/09 09:20:11;;;;;;;0.00;0.00;;;;;;;;;;4994907;28;20935;-84
2023/07/09 09:22:42;;;;;;;0.00;0.00;;;;;;;;;;4996891;28;20978;-84
2023/07/09 09:25:22;;;;;;;0.00;0.00;;;;;;;;;;4994065;28;20426;-85
2023/07/09 09:27:48;;;;;;;0.00;0.00;;;;;;;;;;4976842;28;20418;-85
2023/07/09 09:30:14;;;;;;;0.00;0.00;;;;;;;;;;4995009;28;20414;-85
2023/07/09 09:32:43;;;;;;;0.00;0.00;;;;;;;;;;4994779;28;20406;-84
2023/07/09 09:35:16;;;;;;;0.00;0.00;;;;;;;;;;4976997;28;20410;-85
2023/07/09 09:37:44;;;;;;;0.00;0.00;;;;;;;;;;4991930;28;20415;-85
2023/07/09 09:40:09;;;;;;;0.00;0.00;;;;;;;;;;4977153;28;20418;-85
2023/07/09 09:42:34;;;;;;;0.00;0.00;;;;;;;;;;4994477;28;20398;-85
2023/07/09 09:45:00;;;;;;;0.00;0.00;;;;;;;47.66;nan;100822.47;4976228;28;20525;-85
2023/07/09 09:47:30;;;;;;;0.00;0.00;;;;;;;48.10;nan;100832.50;4996112;28;20502;-85
2023/07/09 09:49:55;;;;;;;0.00;0.00;;;;;;;48.43;nan;100845.28;4995218;28;20473;-85
2023/07/09 09:52:29;;;;;;;0.00;0.00;;;;;;;48.55;nan;100838.44;4989489;28;20936;-84
2023/07/09 09:55:01;;;;;;;0.00;0.00;;;;;;;48.32;nan;100832.50;4993986;28;20421;-85
2023/07/09 09:57:27;;;;;;;0.00;0.00;;;;;;;48.30;nan;100835.72;5002223;28;20410;-84
2023/07/09 09:59:54;;;;;;;0.00;0.00;;;;;;;48.54;nan;100830.44;4975843;28;20496;-84
2023/07/09 10:02:23;;;;;;;0.00;0.00;;;;;;;48.74;nan;100828.78;4993747;28;20684;-85
2023/07/09 10:04:49;;;;;;;0.00;0.00;;;;;;;48.01;nan;100826.50;4987124;28;20394;-84
2023/07/09 10:07:32;;;;;;;0.00;0.00;;;;;;;48.15;nan;100820.06;4994182;28;20421;-85
2023/07/09 10:09:58;;;;;;;0.00;0.00;;;;;;;48.62;nan;100813.19;4994588;28;20421;-85
2023/07/09 10:12:42;;;;;;;0.00;0.00;;;;;;;47.53;nan;100802.44;4976614;28;20582;-85
2023/07/09 10:15:28;;;;;;;0.00;0.00;;;;;;;48.06;nan;100812.09;4994846;28;20399;-84
2023/07/09 10:17:56;;;;;;;0.00;0.00;;;;;;;48.00;nan;100806.06;4998184;28;20549;-85
2023/07/09 10:20:31;;;;;;;0.00;0.00;;;;;;;48.43;nan;100803.22;4975262;28;20414;-85
2023/07/09 10:23:09;;;;;;;0.00;0.00;;;;;;;48.78;nan;100795.91;4996028;28;20406;-85
2023/07/09 10:25:53;;;;;;;0.00;0.00;;;;;;;48.37;nan;100793.63;4992763;28;20920;-85
2023/07/09 10:28:29;;;;;;;0.00;0.00;;;;;;;48.06;nan;100790.47;4990502;28;20403;-84
2023/07/09 10:31:25;;;;;;;0.00;0.00;;;;;;;48.76;nan;100791.91;4993237;28;20418;-85
2023/07/09 10:33:55;;;;;;;0.00;0.00;;;;;;;49.22;nan;100791.66;4973567;28;20416;-85
2023/07/09 10:36:35;;;;;;;0.00;0.00;;;;;;;49.70;nan;100788.16;4986306;28;20403;-85
2023/07/09 10:39:10;;;;;;;0.00;0.00;;;;;;;49.56;nan;100787.44;4991899;28;20414;-85
2023/07/09 10:41:37;;;;;;;0.00;0.00;;;;;;;50.07;nan;100780.97;4991299;28;20469;-84
2023/07/09 10:44:13;;;;;;;0.00;0.00;;;;;;;50.56;nan;100783.66;4973795;28;20418;-84
2023/07/09 10:46:42;;;;;;;0.00;0.00;;;;;;;50.60;nan;100770.34;4989045;28;20413;-85
2023/07/09 10:49:15;;;;;;;0.00;0.00;;;;;;;51.17;nan;100768.78;4989853;28;20947;-85
2023/07/09 10:52:00;;;;;;;0.10;0.10;;;;;;;51.16;nan;100770.03;4990999;28;21578;-84
2023/07/09 10:54:39;;;;;;;0.00;0.00;;;;;;;51.04;nan;100760.13;4974589;28;21615;-83
2023/07/09 10:57:38;;;;;;;0.00;0.00;;;;;;;51.45;nan;100766.78;4995239;28;20414;-82
2023/07/09 11:00:06;;;;;;;0.10;0.10;;;;;;;51.58;nan;100768.53;4975934;28;20423;-83
2023/07/09 11:02:35;;;;;;;0.05;0.05;;;;;;;51.54;nan;100765.00;4977649;28;20406;-82
2023/07/09 11:05:04;;;;;;;0.10;0.10;;;;;;;51.02;nan;100761.78;4976744;28;20418;-82
2023/07/09 11:07:32;;;;;;;0.00;0.00;;;;;;;50.84;nan;100756.38;4993540;28;20501;-83
2023/07/09 11:10:01;;;;;;;0.00;0.00;;;;;;;50.44;nan;100750.44;4998530;28;20413;-84
2023/07/09 11:12:34;;;;;;;0.00;0.00;;;;;;;50.80;nan;100738.72;4996298;28;20417;-83
2023/07/09 11:15:07;;;;;;;0.00;0.00;;;;;;;51.58;nan;100743.16;4984693;28;20820;-84
2023/07/09 11:17:34;;;;;;;0.00;0.00;;;;;;;52.08;nan;100733.03;5003576;28;20461;-84
2023/07/09 11:20:07;;;;;;;0.00;0.00;;;;;;;52.29;nan;100734.63;4953700;28;20415;-83
2023/07/09 11:22:39;;;;;;;0.00;0.00;;;;;;;52.59;nan;100724.34;5002955;28;20413;-84
2023/07/09 11:25:13;;;;;;;0.00;0.00;;;;;;;52.68;nan;100738.63;5008596;28;20402;-84
2023/07/09 11:27:50;;;;;;;0.00;0.00;;;;;;;52.95;nan;100729.97;4999987;28;20399;-84
2023/07/09 11:30:18;;;;;;;0.10;0.10;;;;;;;53.22;nan;100731.78;4979731;28;20481;-84
2023/07/09 11:32:51;;;;;;;0.10;0.10;;;;;;;53.39;nan;100733.34;4997263;28;20410;-84
2023/07/09 11:35:22;;;;;;;0.10;0.10;;;;;;;53.15;nan;100724.28;4995440;28;20415;-84
2023/07/09 11:37:47;;;;;;;0.10;0.10;;;;;;;52.77;nan;100724.75;4990294;28;20490;-83
2023/07/09 11:40:14;;;;;;;0.00;0.00;;;;;;;51.40;nan;100732.22;4975075;28;20395;-83
2023/07/09 11:42:55;;;;;;;0.00;0.00;;;;;;;51.24;nan;100720.78;4992629;28;20837;-84
2023/07/09 11:45:28;;;;;;;0.00;0.00;;;;;;;51.74;nan;100717.13;4993536;28;20697;-84
2023/07/09 11:47:56;;;;;;;0.00;0.00;;;;;;;51.45;nan;100716.84;4994889;28;20923;-83
2023/07/09 11:50:25;;;;;;;0.00;0.00;;;;;;;51.57;nan;100707.75;4993344;28;20470;-84
2023/07/09 11:53:12;;;;;;;0.00;0.00;;;;;;;50.90;nan;100718.09;4994206;28;20417;-84
2023/07/09 11:55:43;;;;;;;0.00;0.00;;;;;;;49.84;nan;100714.09;4976036;28;20440;-84
2023/07/09 11:58:16;;;;;;;0.00;0.00;;;;;;;50.18;nan;100713.38;4976633;28;20411;-85
2023/07/09 12:00:45;;;;;;;0.00;0.00;;;;;;;50.98;nan;100711.91;4991217;28;20851;-83
2023/07/09 12:03:16;;;;;;;0.00;0.00;;;;;;;51.78;nan;100711.44;4995286;28;20391;-84
2023/07/09 12:05:50;;;;;;;0.00;0.00;;;;;;;52.20;nan;100709.81;4996169;28;20402;-84
2023/07/09 12:08:16;;;;;;;0.00;0.00;;;;;;;52.14;nan;100707.94;4994645;28;20497;-83
2023/07/09 12:10:42;;;;;;;0.00;0.00;;;;;;;51.43;nan;100705.19;5004330;28;20441;-84
2023/07/09 12:13:12;;;;;;;0.00;0.00;;;;;;;50.82;nan;100699.69;4979068;28;20414;-84
2023/07/09 12:15:39;;;;;;;0.00;0.00;;;;;;;50.35;nan;100703.13;4978636;28;20411;-83
2023/07/09 12:18:13;;;;;;;0.00;0.00;;;;;;;49.60;nan;100698.25;4980234;28;20395;-84
2023/07/09 12:20:39;;;;;;;0.00;0.00;;;;;;;49.74;nan;100704.56;4998429;28;20892;-84
2023/07/09 12:23:32;;;;;;;0.00;0.00;;;;;;;49.14;nan;100697.44;4999692;28;20395;-83
2023/07/09 12:26:02;;;;;;;0.00;0.00;;;;;;;48.94;nan;100697.19;4999490;28;20580;-84
2023/07/09 12:28:29;;;;;;;0.00;0.00;;;;;;;48.30;nan;100686.22;5004783;28;20772;-84
2023/07/09 12:30:54;;;;;;;0.00;0.00;;;;;;;47.90;nan;100679.94;4980279;28;20468;-83
2023/07/09 12:33:26;;;;;;;0.00;0.00;;;;;;;48.05;nan;100675.88;4995671;28;20800;-83
2023/07/09 12:35:57;;;;;;;0.00;0.00;;;;;;;47.60;nan;100669.94;4990960;28;20483;-84
2023/07/09 12:38:26;;;;;;;0.00;0.00;;;;;;;47.61;nan;100665.97;4978963;28;20393;-83
2023/07/09 12:40:52;;;;;;;0.00;0.00;;;;;;;47.30;nan;100659.16;4985279;28;20390;-83
2023/07/09 12:43:24;;;;;;;0.00;0.00;;;;;;;47.09;nan;100659.94;4981443;28;20804;-84
2023/07/09 12:45:50;;;;;;;0.00;0.00;;;;;;;46.53;nan;100651.81;4997209;28;20409;-83
2023/07/09 12:48:15;;;;;;;0.00;0.00;;;;;;;45.71;nan;100654.94;4994798;28;20505;-83
2023/07/09 12:50:41;;;;;;;0.00;0.00;;;;;;;45.63;nan;100650.50;4975779;28;20406;-84